createdAt,value
2017-03-16T00:07:14.892Z,0
2017-03-16T00:17:26.081Z,0
2017-03-16T00:27:37.395Z,0
2017-03-16T00:37:48.739Z,0
2017-03-16T00:48:00.042Z,0
2017-03-16T00:58:11.426Z,0
2017-03-16T01:08:22.789Z,0
2017-03-16T01:18:34.137Z,0
2017-03-16T01:28:45.490Z,0
2017-03-16T01:38:56.874Z,0
2017-03-16T01:49:08.280Z,0
2017-03-16T01:59:19.658Z,0
2017-03-16T02:09:31.027Z,0
2017-03-16T02:19:42.426Z,0
2017-03-16T02:29:53.800Z,0
2017-03-16T02:40:05.331Z,0
2017-03-16T02:50:16.569Z,0
2017-03-16T03:00:27.917Z,0
2017-03-16T03:10:39.243Z,0
2017-03-16T03:20:50.584Z,0
2017-03-16T03:31:01.900Z,0
2017-03-16T03:41:13.237Z,0
2017-03-16T03:51:24.577Z,0
2017-03-16T04:01:35.943Z,0
2017-03-16T04:11:47.313Z,0
2017-03-16T04:21:58.694Z,0
2017-03-16T04:32:10.124Z,0
2017-03-16T04:42:21.550Z,0
2017-03-16T04:52:32.974Z,0
2017-03-16T05:02:44.405Z,0
2017-03-16T05:12:55.834Z,0
2017-03-16T05:23:07.263Z,0
2017-03-16T05:33:18.689Z,10
2017-03-16T05:43:30.116Z,25
2017-03-16T05:53:41.570Z,50
2017-03-16T06:03:53.040Z,95
2017-03-16T06:14:04.386Z,145
2017-03-16T06:24:15.565Z,190
2017-03-16T06:34:26.691Z,200
2017-03-16T06:44:37.779Z,350
2017-03-16T06:54:48.702Z,535
2017-03-16T07:04:59.476Z,640
2017-03-16T07:15:10.082Z,900
2017-03-16T07:25:20.445Z,1070
2017-03-16T07:35:30.605Z,1145
2017-03-16T07:45:40.563Z,1170
2017-03-16T07:55:50.365Z,1320
2017-03-16T08:06:00.105Z,1465
2017-03-16T08:16:09.570Z,1500
2017-03-16T08:26:18.958Z,1645
2017-03-16T08:36:28.236Z,1965
2017-03-16T08:46:37.338Z,2045
2017-03-16T08:56:46.315Z,1850
2017-03-16T09:06:55.274Z,1990
2017-03-16T09:17:04.206Z,2445
2017-03-16T09:27:13.071Z,2515
2017-03-16T09:37:21.833Z,2360
2017-03-16T09:47:30.538Z,2405
2017-03-16T09:57:39.269Z,2420
2017-03-16T10:07:47.952Z,2395
2017-03-16T10:17:56.624Z,2545
2017-03-16T10:28:05.278Z,2475
2017-03-16T10:38:13.853Z,2865
2017-03-16T10:48:22.330Z,2620
2017-03-16T10:58:30.844Z,2650
2017-03-16T11:08:39.455Z,2240
2017-03-16T11:18:48.054Z,2220
2017-03-16T11:28:56.651Z,2955
2017-03-16T11:39:05.148Z,2630
2017-03-16T11:49:13.551Z,2335
2017-03-16T11:59:22.118Z,2570
2017-03-16T12:09:30.674Z,3085
2017-03-16T12:19:39.146Z,2890
2017-03-16T12:29:47.562Z,2705
2017-03-16T12:39:55.930Z,2665
2017-03-16T12:50:04.227Z,2705
2017-03-16T13:00:12.439Z,2630
2017-03-16T13:10:20.605Z,2370
2017-03-16T13:20:28.704Z,2525
2017-03-16T13:30:36.844Z,2390
2017-03-16T13:40:44.977Z,2225
2017-03-16T13:50:53.120Z,2165
2017-03-16T14:01:01.299Z,2080
2017-03-16T14:11:09.314Z,1850
2017-03-16T14:21:17.375Z,1865
2017-03-16T14:31:25.412Z,1710
2017-03-16T14:41:33.538Z,1730
2017-03-16T14:51:41.636Z,1670
2017-03-16T15:01:49.722Z,1535
2017-03-16T15:11:57.862Z,525
2017-03-16T15:22:06.271Z,1075
2017-03-16T15:32:14.802Z,790
2017-03-16T15:42:23.394Z,905
2017-03-16T15:52:31.875Z,795
2017-03-16T16:02:40.418Z,360
2017-03-16T16:12:49.270Z,315
2017-03-16T16:22:58.323Z,270
2017-03-16T16:33:07.493Z,225
2017-03-16T16:43:16.769Z,185
2017-03-16T16:53:26.143Z,150
2017-03-16T17:03:35.662Z,115
2017-03-16T17:13:45.361Z,85
2017-03-16T17:23:54.992Z,45
2017-03-16T17:34:04.799Z,20
2017-03-16T17:44:14.668Z,5
2017-03-16T17:54:24.611Z,0
2017-03-16T18:04:34.632Z,0
2017-03-16T18:14:44.764Z,0
2017-03-16T18:24:54.930Z,0
2017-03-16T18:35:05.047Z,0
2017-03-16T18:45:15.186Z,0
2017-03-16T18:55:25.330Z,0
2017-03-16T19:05:35.473Z,0
2017-03-16T19:15:45.604Z,0
2017-03-16T19:25:55.803Z,0
2017-03-16T19:36:06.014Z,0
2017-03-16T19:46:16.157Z,0
2017-03-16T19:56:26.332Z,0
2017-03-16T20:06:36.594Z,0
2017-03-16T20:16:46.864Z,0
2017-03-16T20:26:57.125Z,0
2017-03-16T20:37:07.452Z,0
2017-03-16T20:47:17.825Z,0
2017-03-16T20:57:28.446Z,0
2017-03-16T21:07:38.624Z,0
2017-03-16T21:17:49.064Z,0
2017-03-16T21:27:59.458Z,0
2017-03-16T21:38:09.848Z,0
2017-03-16T21:48:20.250Z,0
2017-03-16T21:58:30.731Z,0
2017-03-16T22:08:41.239Z,0
2017-03-16T22:18:51.703Z,0
2017-03-16T22:29:02.109Z,0
2017-03-16T22:39:12.573Z,0
2017-03-16T22:49:23.085Z,0
2017-03-16T22:59:33.602Z,0
2017-03-16T23:09:44.148Z,0
2017-03-16T23:19:54.684Z,0
2017-03-16T23:30:05.211Z,0
2017-03-16T23:40:15.723Z,0
2017-03-16T23:50:26.230Z,0
